createdAt,value
2022-12-29T00:00:08.048Z,9.22
2022-12-29T00:02:34.436Z,9.24
2022-12-29T00:05:00.852Z,9.25
2022-12-29T00:07:27.184Z,9.25
2022-12-29T00:09:53.508Z,9.10
2022-12-29T00:12:19.885Z,9.23
2022-12-29T00:14:46.184Z,9.19
2022-12-29T00:17:12.792Z,9.28
2022-12-29T00:19:39.340Z,9.35
2022-12-29T00:22:05.740Z,9.31
2022-12-29T00:24:32.046Z,9.28
2022-12-29T00:27:04.422Z,9.26
2022-12-29T00:29:30.740Z,9.19
2022-12-29T00:31:57.036Z,9.30
2022-12-29T00:34:23.337Z,9.32
2022-12-29T00:36:49.695Z,9.30
2022-12-29T00:39:19.469Z,9.28
2022-12-29T00:41:46.178Z,9.28
2022-12-29T00:44:14.774Z,9.24
2022-12-29T00:46:43.292Z,9.31
2022-12-29T00:49:12.636Z,9.31
2022-12-29T00:51:39.001Z,9.35
2022-12-29T00:54:05.368Z,9.38
2022-12-29T00:56:31.681Z,9.42
2022-12-29T00:59:01.920Z,9.45
2022-12-29T01:01:28.491Z,9.51
2022-12-29T01:04:00.126Z,9.43
2022-12-29T01:06:28.423Z,9.42
2022-12-29T01:08:54.808Z,9.48
2022-12-29T01:11:21.111Z,9.49
2022-12-29T01:13:47.414Z,9.51
2022-12-29T01:16:13.754Z,9.45
2022-12-29T01:18:40.450Z,9.50
2022-12-29T01:21:07.416Z,9.40
2022-12-29T01:23:34.415Z,9.31
2022-12-29T01:26:14.562Z,9.44
2022-12-29T01:28:41.094Z,9.43
2022-12-29T01:31:11.438Z,9.41
2022-12-29T01:33:38.245Z,9.49
2022-12-29T01:36:07.010Z,9.61
2022-12-29T01:38:35.431Z,9.55
2022-12-29T01:41:02.467Z,9.59
2022-12-29T01:43:48.599Z,9.53
2022-12-29T01:46:19.419Z,9.48
2022-12-29T01:48:47.200Z,9.43
2022-12-29T01:51:13.594Z,9.49
2022-12-29T01:53:40.562Z,9.49
2022-12-29T01:56:11.157Z,9.53
2022-12-29T01:58:42.471Z,9.44
2022-12-29T02:01:09.153Z,9.55
2022-12-29T02:03:37.284Z,9.59
2022-12-29T02:06:12.245Z,9.68
2022-12-29T02:08:39.455Z,9.56
2022-12-29T02:11:06.723Z,9.61
2022-12-29T02:13:33.098Z,9.58
2022-12-29T02:16:36.519Z,9.64
2022-12-29T02:19:21.515Z,9.58
2022-12-29T02:22:02.262Z,9.47
2022-12-29T02:24:58.993Z,9.38
2022-12-29T02:27:31.283Z,9.27
2022-12-29T02:30:09.737Z,9.22
2022-12-29T02:32:54.902Z,9.17
2022-12-29T02:35:31.360Z,9.13
2022-12-29T02:38:28.085Z,9.25
2022-12-29T02:41:03.219Z,9.21
2022-12-29T02:43:59.003Z,9.21
2022-12-29T02:46:38.010Z,9.26
2022-12-29T02:49:18.835Z,9.31
2022-12-29T02:51:53.461Z,9.47
2022-12-29T02:54:20.167Z,9.46
2022-12-29T02:56:46.491Z,9.47
2022-12-29T02:59:13.345Z,9.46
2022-12-29T03:02:12.756Z,9.46
2022-12-29T03:05:05.354Z,9.53
2022-12-29T03:07:51.251Z,9.48
2022-12-29T03:10:46.251Z,9.58
2022-12-29T03:13:31.863Z,9.61
2022-12-29T03:16:30.544Z,9.63
2022-12-29T03:19:15.372Z,9.67
2022-12-29T03:21:56.336Z,9.81
2022-12-29T03:24:33.471Z,9.94
2022-12-29T03:27:03.675Z,10.02
2022-12-29T03:29:33.438Z,10.00
2022-12-29T03:32:03.502Z,10.10
2022-12-29T03:34:32.109Z,10.10
2022-12-29T03:37:03.701Z,10.16
2022-12-29T03:39:30.011Z,10.19
2022-12-29T03:42:00.789Z,10.15
2022-12-29T03:44:36.238Z,10.24
2022-12-29T03:47:03.027Z,10.30
2022-12-29T03:49:29.341Z,10.18
2022-12-29T03:51:55.638Z,10.21
2022-12-29T03:54:22.078Z,10.19
2022-12-29T03:56:48.379Z,10.18
2022-12-29T03:59:14.676Z,10.18
2022-12-29T04:01:41.373Z,10.14
2022-12-29T04:04:07.728Z,10.18
2022-12-29T04:06:34.023Z,10.19
2022-12-29T04:09:00.442Z,10.19
2022-12-29T04:11:32.696Z,10.24
2022-12-29T04:13:59.503Z,10.31
2022-12-29T04:16:25.906Z,10.32
2022-12-29T04:18:52.276Z,10.36
2022-12-29T04:21:18.624Z,10.44
2022-12-29T04:23:44.950Z,10.40
2022-12-29T04:26:11.480Z,10.38
2022-12-29T04:28:38.003Z,10.45
2022-12-29T04:31:04.907Z,10.44
2022-12-29T04:33:31.872Z,10.43
2022-12-29T04:35:58.196Z,10.44
2022-12-29T04:38:24.966Z,10.45
2022-12-29T04:40:52.154Z,10.37
2022-12-29T04:43:18.883Z,10.36
2022-12-29T04:45:46.371Z,10.34
2022-12-29T04:48:13.223Z,10.30
2022-12-29T04:50:40.139Z,10.19
2022-12-29T04:53:07.020Z,9.93
2022-12-29T04:55:33.705Z,9.82
2022-12-29T04:58:00.198Z,9.76
2022-12-29T05:00:26.802Z,9.69
2022-12-29T05:02:53.333Z,9.76
2022-12-29T05:05:19.858Z,9.59
2022-12-29T05:07:46.165Z,9.49
2022-12-29T05:10:12.597Z,9.46
2022-12-29T05:12:39.653Z,9.50
2022-12-29T05:15:07.840Z,9.60
2022-12-29T05:17:34.511Z,9.55
2022-12-29T05:20:00.836Z,9.44
2022-12-29T05:22:27.159Z,9.40
2022-12-29T05:24:53.569Z,9.41
2022-12-29T05:27:19.938Z,9.31
2022-12-29T05:29:46.259Z,9.43
2022-12-29T05:32:12.551Z,9.43
2022-12-29T05:34:38.868Z,9.44
2022-12-29T05:37:05.377Z,9.50
2022-12-29T05:39:31.677Z,9.55
2022-12-29T05:41:58.031Z,9.47
2022-12-29T05:44:24.534Z,9.54
2022-12-29T05:46:50.910Z,9.57
2022-12-29T05:49:17.720Z,9.67
2022-12-29T05:51:44.757Z,9.76
2022-12-29T05:54:11.092Z,9.76
2022-12-29T05:56:37.476Z,9.89
2022-12-29T05:59:03.762Z,9.93
2022-12-29T06:01:30.125Z,9.98
2022-12-29T06:03:56.641Z,10.05
2022-12-29T06:06:23.060Z,10.07
2022-12-29T06:08:49.390Z,10.15
2022-12-29T06:11:15.716Z,10.13
2022-12-29T06:13:42.010Z,10.15
2022-12-29T06:16:08.344Z,10.16
2022-12-29T06:18:34.691Z,10.15
2022-12-29T06:21:05.602Z,10.25
2022-12-29T06:23:32.028Z,10.29
2022-12-29T06:25:58.398Z,10.20
2022-12-29T06:28:24.737Z,9.82
2022-12-29T06:30:51.053Z,9.39
2022-12-29T06:33:17.368Z,9.09
2022-12-29T06:35:44.517Z,8.85
2022-12-29T06:38:10.819Z,8.70
2022-12-29T06:40:37.103Z,8.54
2022-12-29T06:43:03.413Z,8.47
2022-12-29T06:45:29.952Z,8.55
2022-12-29T06:47:56.347Z,8.53
2022-12-29T06:50:22.640Z,8.52
2022-12-29T06:52:48.952Z,8.53
2022-12-29T06:55:15.388Z,8.47
2022-12-29T06:57:41.688Z,8.23
2022-12-29T07:00:08.848Z,8.18
2022-12-29T07:02:35.277Z,8.17
2022-12-29T07:05:01.675Z,8.11
2022-12-29T07:07:27.997Z,8.11
2022-12-29T07:09:54.313Z,8.05
2022-12-29T07:12:20.611Z,8.06
2022-12-29T07:14:46.995Z,8.05
2022-12-29T07:17:13.399Z,8.03
2022-12-29T07:19:40.328Z,7.99
2022-12-29T07:22:06.636Z,7.93
2022-12-29T07:24:32.956Z,7.86
2022-12-29T07:27:02.199Z,7.83
2022-12-29T07:29:28.517Z,7.85
2022-12-29T07:31:54.854Z,7.85
2022-12-29T07:34:21.319Z,7.86
2022-12-29T07:36:47.642Z,7.96
2022-12-29T07:39:14.014Z,8.13
2022-12-29T07:41:40.513Z,8.14
2022-12-29T07:44:06.849Z,8.13
2022-12-29T07:46:55.574Z,8.12
2022-12-29T07:49:19.856Z,8.18
2022-12-29T07:51:46.165Z,8.13
2022-12-29T07:54:12.614Z,8.18
2022-12-29T07:56:39.252Z,8.27
2022-12-29T07:59:05.658Z,8.22
2022-12-29T08:01:32.343Z,8.34
2022-12-29T08:03:58.706Z,8.38
2022-12-29T08:06:25.042Z,8.31
2022-12-29T08:08:51.353Z,8.27
2022-12-29T08:11:17.700Z,8.24
2022-12-29T08:13:44.067Z,8.30
2022-12-29T08:16:10.451Z,8.41
2022-12-29T08:18:36.828Z,8.41
2022-12-29T08:21:04.300Z,8.46
2022-12-29T08:23:31.080Z,8.45
2022-12-29T08:25:59.309Z,8.66
2022-12-29T08:28:25.695Z,8.64
2022-12-29T08:30:52.029Z,8.57
2022-12-29T08:33:18.492Z,8.49
2022-12-29T08:35:45.288Z,8.57
2022-12-29T08:38:11.604Z,8.67
2022-12-29T08:40:38.286Z,8.66
2022-12-29T08:43:04.589Z,8.63
2022-12-29T08:45:30.917Z,8.65
2022-12-29T08:47:57.231Z,8.67
2022-12-29T08:50:23.729Z,8.70
2022-12-29T08:52:50.062Z,8.79
2022-12-29T08:55:16.408Z,8.75
2022-12-29T08:57:42.710Z,8.65
2022-12-29T09:00:09.777Z,8.74
2022-12-29T09:02:36.330Z,8.78
2022-12-29T09:05:03.066Z,8.81
2022-12-29T09:07:29.404Z,8.85
2022-12-29T09:09:55.701Z,8.79
2022-12-29T09:12:22.000Z,8.77
2022-12-29T09:14:48.331Z,8.72
2022-12-29T09:17:14.647Z,8.75
2022-12-29T09:19:40.940Z,8.96
2022-12-29T09:22:07.320Z,8.97
2022-12-29T09:24:33.633Z,8.90
2022-12-29T09:27:00.000Z,9.07
2022-12-29T09:29:26.329Z,9.26
2022-12-29T09:31:52.837Z,9.42
2022-12-29T09:34:19.155Z,9.66
2022-12-29T09:36:45.464Z,9.80
2022-12-29T09:39:13.228Z,9.93
2022-12-29T09:41:57.944Z,9.83
2022-12-29T09:44:32.225Z,9.99
2022-12-29T09:46:59.838Z,9.90
2022-12-29T09:49:44.705Z,9.94
2022-12-29T09:52:16.218Z,9.93
2022-12-29T09:55:02.392Z,9.80
2022-12-29T09:57:36.335Z,9.83
2022-12-29T10:00:12.137Z,9.87
2022-12-29T10:02:43.643Z,9.84
2022-12-29T10:05:15.815Z,9.64
2022-12-29T10:08:05.176Z,9.77
2022-12-29T10:10:42.153Z,9.87
2022-12-29T10:13:29.030Z,9.98
2022-12-29T10:16:20.930Z,9.93
2022-12-29T10:18:58.699Z,9.87
2022-12-29T10:21:48.627Z,9.73
2022-12-29T10:24:14.977Z,9.66
2022-12-29T10:26:43.265Z,9.73
2022-12-29T10:29:18.692Z,9.74
2022-12-29T10:31:51.531Z,9.89
2022-12-29T10:34:48.416Z,10.01
2022-12-29T10:37:38.326Z,10.30
2022-12-29T10:40:18.949Z,10.40
2022-12-29T10:42:51.301Z,10.43
2022-12-29T10:45:20.128Z,10.47
2022-12-29T10:47:55.844Z,10.32
2022-12-29T10:50:23.494Z,10.31
2022-12-29T10:52:50.087Z,10.32
2022-12-29T10:55:23.148Z,10.33
2022-12-29T10:57:49.939Z,10.38
2022-12-29T11:00:18.133Z,10.39
2022-12-29T11:02:44.512Z,10.38
2022-12-29T11:05:23.297Z,10.42
2022-12-29T11:07:54.640Z,10.48
2022-12-29T11:10:35.945Z,10.39
2022-12-29T11:13:11.529Z,10.48
2022-12-29T11:15:46.405Z,10.53
2022-12-29T11:18:20.081Z,10.44
2022-12-29T11:20:46.401Z,10.44
2022-12-29T11:23:34.095Z,10.43
2022-12-29T11:26:15.387Z,10.41
2022-12-29T11:28:45.602Z,10.38
2022-12-29T11:31:17.174Z,10.24
2022-12-29T11:33:43.535Z,10.19
2022-12-29T11:36:18.105Z,10.13
2022-12-29T11:38:49.667Z,10.15
2022-12-29T11:41:22.925Z,10.17
2022-12-29T11:43:49.848Z,10.21
2022-12-29T11:46:21.801Z,10.26
2022-12-29T11:48:48.412Z,10.47
2022-12-29T11:51:25.226Z,10.36
2022-12-29T11:53:56.993Z,10.36
2022-12-29T11:56:40.198Z,10.40
2022-12-29T11:59:29.224Z,10.34
2022-12-29T12:01:58.588Z,10.28
2022-12-29T12:04:29.884Z,10.34
2022-12-29T12:07:25.390Z,10.35
2022-12-29T12:10:03.104Z,10.24
2022-12-29T12:12:45.597Z,10.21
2022-12-29T12:15:32.455Z,10.29
2022-12-29T12:18:10.425Z,10.21
2022-12-29T12:20:46.680Z,10.28
2022-12-29T12:23:26.526Z,10.22
2022-12-29T12:26:00.496Z,10.33
2022-12-29T12:28:38.477Z,10.30
2022-12-29T12:31:14.091Z,10.34
2022-12-29T12:33:45.145Z,10.36
2022-12-29T12:36:36.365Z,10.34
2022-12-29T12:39:11.639Z,10.43
2022-12-29T12:41:56.175Z,10.38
2022-12-29T12:44:36.767Z,10.31
2022-12-29T12:47:31.036Z,10.24
2022-12-29T12:50:25.776Z,10.17
2022-12-29T12:53:14.296Z,10.26
2022-12-29T12:55:53.323Z,10.28
2022-12-29T12:58:46.013Z,10.28
2022-12-29T13:01:23.816Z,10.28
2022-12-29T13:04:10.903Z,10.26
2022-12-29T13:06:55.935Z,10.20
2022-12-29T13:09:31.036Z,10.16
2022-12-29T13:12:15.690Z,10.13
2022-12-29T13:14:58.587Z,10.25
2022-12-29T13:17:41.179Z,10.18
2022-12-29T13:20:24.949Z,10.16
2022-12-29T13:23:08.623Z,10.13
2022-12-29T13:25:59.820Z,10.13
2022-12-29T13:28:43.941Z,10.14
2022-12-29T13:31:15.694Z,10.11
2022-12-29T13:33:56.843Z,10.17
2022-12-29T13:36:30.433Z,10.17
2022-12-29T13:39:14.789Z,10.15
2022-12-29T13:41:49.764Z,10.07
2022-12-29T13:44:21.496Z,10.11
2022-12-29T13:46:50.132Z,10.15
2022-12-29T13:49:19.795Z,10.13
2022-12-29T13:51:58.610Z,10.13
2022-12-29T13:54:48.264Z,9.99
2022-12-29T13:57:42.841Z,10.06
2022-12-29T14:00:21.305Z,10.07
2022-12-29T14:02:47.654Z,10.01
2022-12-29T14:05:23.410Z,10.00
2022-12-29T14:07:58.833Z,9.93
2022-12-29T14:10:29.928Z,9.96
2022-12-29T14:13:11.897Z,9.91
2022-12-29T14:15:44.988Z,9.71
2022-12-29T14:18:21.911Z,9.70
2022-12-29T14:20:58.539Z,9.57
2022-12-29T14:23:30.142Z,9.63
2022-12-29T14:26:00.592Z,9.46
2022-12-29T14:28:32.548Z,9.25
2022-12-29T14:31:06.532Z,9.23
2022-12-29T14:33:34.795Z,9.21
2022-12-29T14:36:26.216Z,9.14
2022-12-29T14:38:52.652Z,9.13
2022-12-29T14:41:25.173Z,9.22
2022-12-29T14:43:55.611Z,9.23
2022-12-29T14:46:22.011Z,9.31
2022-12-29T14:48:48.514Z,9.36
2022-12-29T14:51:29.242Z,9.42
2022-12-29T14:53:55.648Z,9.42
2022-12-29T14:56:28.853Z,9.45
2022-12-29T14:59:02.687Z,9.39
2022-12-29T15:01:40.803Z,9.32
2022-12-29T15:04:18.172Z,9.32
2022-12-29T15:06:45.270Z,9.34
2022-12-29T15:09:28.334Z,9.32
2022-12-29T15:12:00.157Z,9.35
2022-12-29T15:14:31.548Z,9.33
2022-12-29T15:16:58.588Z,9.22
2022-12-29T15:19:27.458Z,9.20
2022-12-29T15:21:55.568Z,9.24
2022-12-29T15:24:21.961Z,9.31
2022-12-29T15:26:51.959Z,9.33
2022-12-29T15:29:39.382Z,9.19
2022-12-29T15:32:18.017Z,9.19
2022-12-29T15:34:46.811Z,9.27
2022-12-29T15:37:22.121Z,9.22
2022-12-29T15:39:49.038Z,9.17
2022-12-29T15:42:36.914Z,9.18
2022-12-29T15:45:11.548Z,9.27
2022-12-29T15:47:39.317Z,9.17
2022-12-29T15:50:27.130Z,9.16
2022-12-29T15:52:53.541Z,9.25
2022-12-29T15:55:42.227Z,9.31
2022-12-29T15:58:27.636Z,9.24
2022-12-29T16:00:59.786Z,9.25
2022-12-29T16:03:37.646Z,9.35
2022-12-29T16:06:26.812Z,9.26
2022-12-29T16:09:17.786Z,9.10
2022-12-29T16:11:52.697Z,9.16
2022-12-29T16:14:25.741Z,9.29
2022-12-29T16:16:52.219Z,9.30
2022-12-29T16:19:38.476Z,9.24
2022-12-29T16:22:12.468Z,9.25
2022-12-29T16:24:41.042Z,9.19
2022-12-29T16:27:23.248Z,9.21
2022-12-29T16:29:55.202Z,9.24
2022-12-29T16:32:32.105Z,9.27
2022-12-29T16:35:18.284Z,9.31
2022-12-29T16:37:45.409Z,9.26
2022-12-29T16:40:31.424Z,9.26
2022-12-29T16:43:04.527Z,9.31
2022-12-29T16:45:46.017Z,9.22
2022-12-29T16:48:15.364Z,9.15
2022-12-29T16:50:44.810Z,9.16
2022-12-29T16:53:29.060Z,9.18
2022-12-29T16:55:57.712Z,9.17
2022-12-29T16:58:27.921Z,9.13
2022-12-29T17:00:58.779Z,9.19
2022-12-29T17:03:33.559Z,9.15
2022-12-29T17:05:59.861Z,9.08
2022-12-29T17:08:26.160Z,9.05
2022-12-29T17:10:57.523Z,9.13
2022-12-29T17:13:23.825Z,9.12
2022-12-29T17:15:50.183Z,9.12
2022-12-29T17:18:16.506Z,9.18
2022-12-29T17:20:42.786Z,9.22
2022-12-29T17:23:19.886Z,8.84
2022-12-29T17:25:54.480Z,8.35
2022-12-29T17:28:30.369Z,8.20
2022-12-29T17:31:01.109Z,7.95
2022-12-29T17:33:28.445Z,7.89
2022-12-29T17:35:55.861Z,7.77
2022-12-29T17:38:28.383Z,7.57
2022-12-29T17:40:55.128Z,7.49
2022-12-29T17:43:21.514Z,7.45
2022-12-29T17:45:53.625Z,7.47
2022-12-29T17:48:20.355Z,7.54
2022-12-29T17:50:49.657Z,7.37
2022-12-29T17:53:20.108Z,7.34
2022-12-29T17:55:46.637Z,7.38
2022-12-29T17:58:20.302Z,7.38
2022-12-29T18:00:52.312Z,7.39
2022-12-29T18:03:23.584Z,7.38
2022-12-29T18:05:50.011Z,7.43
2022-12-29T18:08:16.373Z,7.41
2022-12-29T18:10:43.009Z,7.29
2022-12-29T18:13:19.744Z,7.35
2022-12-29T18:15:46.269Z,7.31
2022-12-29T18:18:15.595Z,7.46
2022-12-29T18:20:43.483Z,7.52
2022-12-29T18:23:19.915Z,7.54
2022-12-29T18:25:51.622Z,7.53
2022-12-29T18:28:17.939Z,7.69
2022-12-29T18:30:44.329Z,7.64
2022-12-29T18:33:21.339Z,7.67
2022-12-29T18:35:55.780Z,7.70
2022-12-29T18:38:22.135Z,7.53
2022-12-29T18:40:49.544Z,7.58
2022-12-29T18:43:17.553Z,7.55
2022-12-29T18:45:45.827Z,7.41
2022-12-29T18:48:19.349Z,7.35
2022-12-29T18:50:46.748Z,7.36
2022-12-29T18:53:21.348Z,7.36
2022-12-29T18:55:47.653Z,7.26
2022-12-29T18:58:14.178Z,7.38
2022-12-29T19:00:40.848Z,7.39
2022-12-29T19:03:07.474Z,7.35
2022-12-29T19:05:38.838Z,7.31
2022-12-29T19:08:06.223Z,7.42
2022-12-29T19:10:32.697Z,7.40
2022-12-29T19:12:59.359Z,7.31
2022-12-29T19:15:36.291Z,7.21
2022-12-29T19:20:53.348Z,7.21
2022-12-29T19:23:22.117Z,7.23
2022-12-29T19:25:49.594Z,7.09
2022-12-29T19:28:24.752Z,7.09
2022-12-29T19:30:53.210Z,7.11
2022-12-29T19:33:21.355Z,7.14
2022-12-29T19:35:48.190Z,7.20
2022-12-29T19:38:14.881Z,7.10
2022-12-29T19:40:43.724Z,6.97
2022-12-29T19:43:14.139Z,7.04
2022-12-29T19:45:42.423Z,7.07
2022-12-29T19:48:13.704Z,7.05
2022-12-29T19:50:40.324Z,7.15
2022-12-29T19:53:06.639Z,7.11
2022-12-29T19:55:33.012Z,7.07
2022-12-29T19:57:59.384Z,7.12
2022-12-29T20:00:25.701Z,7.11
2022-12-29T20:02:52.216Z,7.11
2022-12-29T20:05:18.849Z,7.08
2022-12-29T20:07:45.217Z,7.12
2022-12-29T20:10:11.537Z,7.11
2022-12-29T20:12:38.163Z,7.10
2022-12-29T20:15:08.985Z,7.08
2022-12-29T20:18:10.928Z,7.17
2022-12-29T20:20:21.962Z,7.15
2022-12-29T20:22:48.295Z,7.14
2022-12-29T20:28:00.948Z,7.18
2022-12-29T20:30:27.258Z,7.20
2022-12-29T20:32:53.587Z,7.23
2022-12-29T20:35:19.948Z,7.21
2022-12-29T20:37:46.259Z,7.13
2022-12-29T20:40:12.755Z,7.08
2022-12-29T20:42:39.049Z,7.05
2022-12-29T20:45:05.661Z,7.13
2022-12-29T20:47:31.957Z,7.02
2022-12-29T20:49:58.283Z,6.98
2022-12-29T20:52:24.578Z,7.00
2022-12-29T20:54:50.941Z,6.93
2022-12-29T20:57:17.251Z,6.97
2022-12-29T20:59:43.561Z,6.89
2022-12-29T21:02:21.979Z,6.97
2022-12-29T21:07:34.961Z,6.99
2022-12-29T21:10:01.279Z,6.91
2022-12-29T21:12:27.607Z,7.01
2022-12-29T21:14:53.901Z,7.00
2022-12-29T21:17:20.207Z,7.08
2022-12-29T21:19:46.499Z,6.98
2022-12-29T21:22:12.808Z,7.08
2022-12-29T21:24:39.103Z,7.05
2022-12-29T21:27:05.438Z,6.98
2022-12-29T21:29:31.735Z,7.09
2022-12-29T21:32:04.050Z,7.03
2022-12-29T21:34:32.255Z,7.10
2022-12-29T21:36:58.560Z,7.08
2022-12-29T21:39:25.020Z,7.14
2022-12-29T21:41:51.349Z,7.02
2022-12-29T21:44:17.821Z,7.01
2022-12-29T21:46:44.156Z,7.01
2022-12-29T21:49:10.801Z,7.06
2022-12-29T21:51:37.163Z,7.02
2022-12-29T21:54:03.702Z,6.99
2022-12-29T21:56:29.990Z,6.99
2022-12-29T21:58:56.288Z,7.08
2022-12-29T22:01:23.363Z,7.11
2022-12-29T22:03:49.736Z,7.16
2022-12-29T22:06:16.070Z,7.13
2022-12-29T22:08:42.643Z,7.08
2022-12-29T22:11:09.197Z,6.99
2022-12-29T22:13:37.656Z,6.97
2022-12-29T22:16:09.922Z,7.00
2022-12-29T22:18:37.263Z,7.08
2022-12-29T22:21:04.972Z,7.12
2022-12-29T22:23:31.314Z,7.03
2022-12-29T22:25:57.660Z,7.04
2022-12-29T22:28:24.089Z,6.89
2022-12-29T22:30:50.543Z,6.98
2022-12-29T22:33:17.341Z,7.05
2022-12-29T22:35:43.678Z,6.99
2022-12-29T22:38:10.000Z,7.02
2022-12-29T22:40:36.320Z,7.02
2022-12-29T22:43:06.643Z,7.02
2022-12-29T22:45:35.821Z,6.99
2022-12-29T22:48:02.137Z,7.02
2022-12-29T22:50:28.447Z,6.99
2022-12-29T22:52:54.787Z,7.00
2022-12-29T22:55:21.340Z,7.04
2022-12-29T22:57:47.667Z,7.10
2022-12-29T23:00:14.494Z,7.13
2022-12-29T23:02:40.979Z,7.19
2022-12-29T23:05:07.872Z,7.14
2022-12-29T23:07:34.790Z,7.10
2022-12-29T23:10:01.692Z,7.11
2022-12-29T23:12:31.638Z,7.13
2022-12-29T23:14:57.987Z,7.02
2022-12-29T23:17:24.317Z,7.00
2022-12-29T23:19:50.685Z,7.01
2022-12-29T23:22:17.009Z,6.91
2022-12-29T23:24:43.304Z,6.93
2022-12-29T23:27:09.700Z,6.96
2022-12-29T23:29:36.029Z,6.85
2022-12-29T23:32:02.391Z,6.88
2022-12-29T23:34:28.694Z,6.91
2022-12-29T23:36:55.005Z,6.95
2022-12-29T23:39:23.448Z,6.97
2022-12-29T23:41:50.060Z,6.89
2022-12-29T23:44:16.383Z,7.07
2022-12-29T23:46:42.956Z,6.97
2022-12-29T23:49:10.115Z,6.93
2022-12-29T23:51:36.627Z,7.00
2022-12-29T23:54:03.449Z,6.97
2022-12-29T23:56:29.775Z,6.96
2022-12-29T23:58:56.109Z,7.01
